Time;durP1;ratioP1;P1;durP2;ratioP2;P2;SDS_P1;SDS_P2;PMS_P1;PMS_P2;Temp;Humidity;BMP_temperature;BMP_pressure;BME280_temperature;BME280_humidity;BME280_pressure;Samples;Min_cycle;Max_cycle;Signal;HPM_P1;HPM_P2
2022/04/26 03:38:12;;;;;;;21.58;17.00;;;;;;;6.52;100.00;99439.09;4993896;28;20053;-86
2022/04/26 03:40:37;;;;;;;22.15;17.55;;;;;;;6.55;100.00;99446.75;4993811;28;20474;-85
2022/04/26 03:43:03;;;;;;;21.30;16.67;;;;;;;6.52;100.00;99452.00;4977307;28;20070;-85
2022/04/26 03:45:28;;;;;;;24.33;17.00;;;;;;;6.47;100.00;99444.41;4993338;28;20030;-85
2022/04/26 03:47:53;;;;;;;24.65;18.08;;;;;;;6.49;100.00;99448.66;4993488;28;20026;-85
2022/04/26 03:50:19;;;;;;;23.02;16.65;;;;;;;6.49;100.00;99453.81;5070991;28;20396;-85
2022/04/26 03:52:45;;;;;;;20.30;16.38;;;;;;;6.48;100.00;99453.84;5075239;28;20056;-85
2022/04/26 03:55:10;;;;;;;23.10;17.83;;;;;;;6.45;100.00;99452.22;5056984;28;20052;-85
2022/04/26 03:57:35;;;;;;;21.60;17.23;;;;;;;6.54;100.00;99463.19;5057046;28;20025;-86
2022/04/26 04:00:01;;;;;;;25.67;17.42;;;;;;;6.52;100.00;99465.78;5057276;28;20398;-85
2022/04/26 04:02:26;;;;;;;23.48;17.73;;;;;;;6.48;100.00;99459.03;5074777;28;20483;-85
2022/04/26 04:04:52;;;;;;;23.98;17.38;;;;;;;6.53;100.00;99467.50;5057100;28;20033;-85
2022/04/26 04:07:17;;;;;;;22.08;17.80;;;;;;;6.49;100.00;99469.34;5056817;28;20114;-85
2022/04/26 04:09:42;;;;;;;26.08;17.60;;;;;;;6.53;100.00;99479.56;5032022;28;20107;-85
2022/04/26 04:12:08;;;;;;;23.85;18.25;;;;;;;6.55;100.00;99473.47;5015628;28;20199;-85
2022/04/26 04:14:34;;;;;;;23.10;17.98;;;;;;;6.49;100.00;99469.34;5015467;28;20033;-85
2022/04/26 04:16:59;;;;;;;25.67;18.10;;;;;;;6.55;100.00;99481.22;5015843;28;20037;-86
2022/04/26 04:19:27;;;;;;;25.63;18.48;;;;;;;6.52;100.00;99478.72;5015723;28;20143;-85
2022/04/26 04:21:53;;;;;;;23.75;17.92;;;;;;;6.51;100.00;99471.88;5015709;28;20056;-85
2022/04/26 04:24:19;;;;;;;24.85;18.50;;;;;;;6.57;100.00;99486.34;5015443;28;20045;-85
2022/04/26 04:26:45;;;;;;;27.70;20.88;;;;;;;6.57;100.00;99486.34;5015560;28;20030;-85
2022/04/26 04:29:11;;;;;;;22.52;18.50;;;;;;;6.64;100.00;99493.84;5015275;28;20067;-85
2022/04/26 04:31:37;;;;;;;28.95;20.52;;;;;;;6.64;100.00;99486.09;5014891;28;20527;-86
2022/04/26 04:34:03;;;;;;;24.15;18.63;;;;;;;6.65;100.00;99498.13;5014980;28;20025;-85
2022/04/26 04:36:29;;;;;;;27.05;18.88;;;;;;;6.59;100.00;99477.66;5015355;28;20485;-85
2022/04/26 04:38:58;;;;;;;26.63;19.17;;;;;;;6.61;100.00;99487.94;5032518;28;20452;-85
2022/04/26 04:41:24;;;;;;;25.75;18.80;;;;;;;6.66;100.00;99496.41;5065020;28;20538;-85
2022/04/26 04:43:49;;;;;;;32.85;20.27;;;;;;;6.69;100.00;99491.97;5056417;28;20032;-85
2022/04/26 04:46:15;;;;;;;26.20;20.58;;;;;;;6.80;100.00;99495.94;5056130;28;20047;-85
2022/04/26 04:48:40;;;;;;;27.75;19.50;;;;;;;6.81;100.00;99505.41;5056236;28;20115;-85
2022/04/26 04:51:07;;;;;;;30.65;19.15;;;;;;;6.82;100.00;99505.34;5056080;28;20028;-85
2022/04/26 04:53:33;;;;;;;25.55;17.23;;;;;;;6.79;100.00;99497.69;5055909;28;20036;-85
2022/04/26 04:55:58;;;;;;;32.58;19.80;;;;;;;6.95;100.00;99522.19;5055980;28;20086;-86
2022/04/26 04:58:25;;;;;;;25.15;17.80;;;;;;;7.00;100.00;99522.84;5055920;28;20036;-85
2022/04/26 05:00:51;;;;;;;24.02;16.95;;;;;;;6.98;100.00;99523.78;5031424;28;20081;-85
2022/04/26 05:03:16;;;;;;;25.02;17.42;;;;;;;7.03;100.00;99526.22;5014657;28;20037;-85
2022/04/26 05:05:42;;;;;;;22.50;16.95;;;;;;;7.02;100.00;99527.97;5014913;28;20519;-85
2022/04/26 05:08:11;;;;;;;22.35;18.50;;;;;;;7.06;100.00;99523.53;5014772;28;20034;-78
2022/04/26 05:10:37;;;;;;;24.48;17.27;;;;;;;7.18;100.00;99543.84;5031364;28;20055;-78
2022/04/26 05:13:04;;;;;;;21.75;16.45;;;;;;;7.17;100.00;99534.38;5031389;28;20485;-78
2022/04/26 05:15:30;;;;;;;20.58;15.70;;;;;;;7.21;100.00;99544.59;5031032;28;20606;-77
2022/04/26 05:17:55;;;;;;;22.85;16.85;;;;;;;7.33;100.00;99550.22;5014668;28;20492;-78
2022/04/26 05:20:21;;;;;;;24.98;17.58;;;;;;;7.39;100.00;99550.88;5031026;28;20169;-78
2022/04/26 05:25:37;;;;;;;20.50;14.93;;;;;;;7.32;100.00;99551.13;5030954;28;20387;-78
2022/04/26 05:28:03;;;;;;;21.35;16.25;;;;;;;7.32;100.00;99551.13;5031053;28;20494;-78
2022/04/26 05:30:29;;;;;;;20.38;15.23;;;;;;;7.34;100.00;99554.53;5030947;28;20044;-78
2022/04/26 05:32:54;;;;;;;19.80;13.77;;;;;;;7.33;100.00;99545.03;5070968;28;20044;-78
2022/04/26 05:35:21;;;;;;;19.48;14.00;;;;;;;7.47;100.00;99571.34;5073019;28;20036;-77
2022/04/26 05:37:46;;;;;;;16.60;12.98;;;;;;;7.54;100.00;99567.59;5073395;28;20024;-78
2022/04/26 05:40:12;;;;;;;19.65;13.70;;;;;;;7.63;100.00;99566.47;5073132;28;20035;-78
2022/04/26 05:42:40;;;;;;;19.20;13.43;;;;;;;7.65;100.00;99557.72;5073185;28;20074;-78
2022/04/26 05:45:07;;;;;;;19.98;13.57;;;;;;;7.71;100.00;99565.28;5072857;28;20035;-77
2022/04/26 05:47:32;;;;;;;25.23;16.63;;;;;;;7.78;100.00;99555.50;5072728;28;20051;-85
2022/04/26 05:49:58;;;;;;;18.70;13.52;;;;;;;7.96;100.00;99572.13;5073452;28;20539;-84
2022/04/26 05:52:26;;;;;;;19.73;14.57;;;;;;;8.05;100.00;99573.53;5055459;28;20027;-85
2022/04/26 05:54:52;;;;;;;17.95;14.48;;;;;;;8.08;100.00;99560.47;5055435;28;20045;-85
2022/04/26 05:57:18;;;;;;;21.90;14.25;;;;;;;8.19;100.00;99574.72;5054969;28;20037;-85
2022/04/26 05:59:43;;;;;;;16.55;13.25;;;;;;;8.25;100.00;99569.28;5055053;28;20058;-85
2022/04/26 06:02:09;;;;;;;19.70;13.63;;;;;;;8.49;100.00;99574.47;5054793;28;20027;-85
2022/04/26 06:04:37;;;;;;;17.05;11.55;;;;;;;8.66;100.00;99564.25;5054624;28;20058;-85
2022/04/26 06:07:03;;;;;;;14.23;11.35;;;;;;;8.90;100.00;99577.19;5054974;28;20036;-86
2022/04/26 06:09:28;;;;;;;17.48;14.02;;;;;;;9.02;100.00;99571.47;5054602;28;20024;-86
2022/04/26 06:11:53;;;;;;;15.18;12.05;;;;;;;9.10;100.00;99579.81;5054734;28;20041;-86
2022/04/26 06:14:19;;;;;;;16.48;12.52;;;;;;;9.02;100.00;99563.69;5072346;28;20029;-85
2022/04/26 06:16:44;;;;;;;16.17;12.30;;;;;;;9.06;100.00;99565.25;5054658;28;20509;-86
2022/04/26 06:19:10;;;;;;;19.77;12.85;;;;;;;9.22;100.00;99578.41;5054860;28;20455;-85
2022/04/26 06:21:35;;;;;;;15.73;11.52;;;;;;;9.30;100.00;99576.34;5054583;28;20119;-85
2022/04/26 06:24:01;;;;;;;18.38;12.23;;;;;;;9.68;100.00;99579.88;5055087;28;20024;-85
2022/04/26 06:26:26;;;;;;;16.70;11.88;;;;;;;10.09;100.00;99566.78;5054556;28;20468;-85
2022/04/26 06:28:51;;;;;;;14.82;11.85;;;;;;;10.46;100.00;99578.13;5054646;28;20048;-85
2022/04/26 06:31:17;;;;;;;17.95;12.05;;;;;;;10.68;100.00;99575.34;5054531;28;20078;-85
2022/04/26 06:33:42;;;;;;;18.02;13.27;;;;;;;10.94;100.00;99576.66;5054644;28;20069;-85
2022/04/26 06:36:07;;;;;;;17.38;12.38;;;;;;;11.15;100.00;99572.16;5054654;28;20380;-85
2022/04/26 06:38:33;;;;;;;14.88;12.07;;;;;;;11.13;100.00;99576.63;5072341;28;20115;-86
2022/04/26 06:40:58;;;;;;;15.70;11.63;;;;;;;11.42;100.00;99562.94;5054248;28;20388;-86
2022/04/26 06:43:24;;;;;;;15.68;11.32;;;;;;;11.42;99.93;99562.94;5054084;28;20031;-85
2022/04/26 06:45:49;;;;;;;16.27;11.85;;;;;;;11.73;100.00;99580.44;5054008;28;20024;-82
2022/04/26 06:48:15;;;;;;;14.23;11.55;;;;;;;12.03;100.00;99574.56;5072056;28;20027;-84
2022/04/26 06:50:42;;;;;;;15.48;11.82;;;;;;;12.41;98.52;99587.28;5054319;28;20665;-85
2022/04/26 06:53:08;;;;;;;12.57;11.18;;;;;;;12.29;95.05;99567.06;5054548;28;20484;-86
2022/04/26 06:55:34;;;;;;;15.30;11.80;;;;;;;12.40;94.25;99593.44;5053687;28;20036;-86
2022/04/26 06:58:00;;;;;;;15.43;11.88;;;;;;;12.21;95.30;99588.38;5054483;28;20113;-85
2022/04/26 07:00:26;;;;;;;15.07;11.38;;;;;;;12.09;95.28;99579.44;5054036;28;20032;-85
2022/04/26 07:02:53;;;;;;;17.63;11.85;;;;;;;12.38;94.05;99593.50;5054269;28;20056;-85
2022/04/26 07:05:19;;;;;;;12.73;11.25;;;;;;;12.73;94.66;99582.91;5029614;28;20051;-85
2022/04/26 07:07:46;;;;;;;14.15;11.48;;;;;;;13.07;94.13;99578.34;5013111;28;20037;-85
2022/04/26 07:10:11;;;;;;;14.30;11.50;;;;;;;13.16;92.52;99590.88;5012880;28;20695;-85
2022/04/26 07:12:36;;;;;;;18.00;12.30;;;;;;;12.83;91.17;99581.44;5013054;28;20036;-85
2022/04/26 07:15:03;;;;;;;16.42;11.50;;;;;;;12.91;92.44;99602.75;5012740;28;20041;-85
2022/04/26 07:17:29;;;;;;;12.98;11.15;;;;;;;13.39;91.63;99600.84;5029440;28;20123;-85
2022/04/26 07:19:57;;;;;;;14.68;10.93;;;;;;;13.87;89.44;99598.03;5013169;28;20072;-85
2022/04/26 07:22:23;;;;;;;14.55;11.95;;;;;;;14.52;88.74;99600.13;5012539;28;20116;-85
2022/04/26 07:24:48;;;;;;;13.55;10.50;;;;;;;15.50;84.17;99605.00;5012932;28;20176;-86
2022/04/26 07:27:16;;;;;;;12.55;10.52;;;;;;;15.77;78.72;99597.09;5012713;28;20027;-85
2022/04/26 07:29:43;;;;;;;14.85;10.32;;;;;;;15.16;81.00;99603.81;5012344;28;20141;-85
2022/04/26 07:32:09;;;;;;;13.43;10.20;;;;;;;15.07;82.51;99607.88;5012575;28;20481;-85
2022/04/26 07:34:35;;;;;;;12.80;10.20;;;;;;;14.89;80.00;99607.31;5012400;28;20081;-86
2022/04/26 07:37:02;;;;;;;13.80;10.48;;;;;;;14.97;79.23;99614.69;5012664;28;20077;-85
2022/04/26 07:39:29;;;;;;;23.38;17.75;;;;;;;14.95;79.83;99600.81;5028925;28;20485;-85
2022/04/26 07:41:56;;;;;;;17.45;13.73;;;;;;;15.49;79.03;99605.97;5019411;28;20048;-85
2022/04/26 07:44:21;;;;;;;16.90;13.35;;;;;;;15.86;75.95;99604.31;5053494;28;20036;-85
2022/04/26 07:46:50;;;;;;;13.60;11.20;;;;;;;16.01;73.20;99609.44;5053880;28;20081;-85
2022/04/26 07:49:16;;;;;;;13.77;11.18;;;;;;;15.74;75.03;99617.47;5053965;28;20021;-85
2022/04/26 07:51:42;;;;;;;13.55;9.48;;;;;;;16.21;75.06;99608.91;5053667;28;20086;-85
2022/04/26 07:54:09;;;;;;;12.90;10.15;;;;;;;16.96;74.13;99619.31;5053919;28;20407;-86
2022/04/26 07:56:35;;;;;;;15.82;12.25;;;;;;;16.99;72.07;99619.09;5053081;28;20031;-86
2022/04/26 07:59:01;;;;;;;17.35;11.65;;;;;;;16.51;72.21;99612.91;5053272;28;20032;-86
2022/04/26 08:01:28;;;;;;;12.68;10.60;;;;;;;16.64;74.64;99627.72;5053013;28;20606;-86
2022/04/26 08:03:54;;;;;;;14.00;9.90;;;;;;;16.74;71.18;99616.56;5053490;28;20055;-86
2022/04/26 08:06:20;;;;;;;10.68;9.55;;;;;;;16.51;72.95;99616.38;5072218;28;20040;-86
2022/04/26 08:08:45;;;;;;;16.67;11.68;;;;;;;16.73;71.77;99618.38;5056647;28;20035;-86
2022/04/26 08:11:14;;;;;;;14.68;10.63;;;;;;;16.81;72.47;99623.03;5057442;28;20048;-85
2022/04/26 08:13:40;;;;;;;13.48;10.05;;;;;;;17.54;72.87;99620.22;5056873;28;20024;-86
2022/04/26 08:16:07;;;;;;;11.45;9.93;;;;;;;18.25;69.10;99630.63;5057505;28;20024;-86
2022/04/26 08:18:32;;;;;;;10.45;9.02;;;;;;;17.82;68.61;99632.13;5057404;28;20031;-86
2022/04/26 08:20:58;;;;;;;11.63;9.27;;;;;;;17.69;71.02;99640.09;5032803;28;20037;-86
2022/04/26 08:23:23;;;;;;;11.85;10.13;;;;;;;17.65;71.25;99640.47;5015888;28;20048;-85
2022/04/26 08:28:33;;;;;;;12.85;9.48;;;;;;;17.81;71.86;99641.00;5032547;28;20044;-86
2022/04/26 08:31:00;;;;;;;15.18;9.40;;;;;;;17.46;72.75;99648.91;5015712;28;20045;-85
2022/04/26 08:33:30;;;;;;;10.23;8.35;;;;;;;16.94;71.30;99647.53;5015452;28;20382;-86
2022/04/26 08:35:56;;;;;;;12.33;10.07;;;;;;;16.45;73.05;99645.75;5015829;28;20102;-86
2022/04/26 08:38:22;;;;;;;10.57;8.05;;;;;;;16.14;74.38;99642.66;5016004;28;20563;-86
2022/04/26 08:40:48;;;;;;;8.10;6.90;;;;;;;16.12;75.23;99652.41;5032187;28;20519;-86
2022/04/26 08:43:14;;;;;;;8.55;7.25;;;;;;;16.00;74.81;99649.81;5015802;28;20029;-86
2022/04/26 08:45:40;;;;;;;9.13;7.57;;;;;;;15.83;74.45;99648.34;5015593;28;20533;-86
2022/04/26 08:50:59;;;;;;;11.65;8.88;;;;;;;15.47;76.65;99649.84;5034212;28;20048;-86
2022/04/26 08:53:26;;;;;;;10.85;8.80;;;;;;;14.88;78.25;99647.59;5056094;28;20468;-86
2022/04/26 08:55:57;;;;;;;9.20;7.68;;;;;;;15.00;80.66;99658.22;5056291;28;20506;-85
2022/04/26 08:58:25;;;;;;;10.30;8.32;;;;;;;15.09;79.96;99661.09;5074400;28;20384;-86
2022/04/26 09:01:10;;;;;;;10.77;7.70;;;;;;;15.11;79.78;99660.97;5056242;28;20029;-86
2022/04/26 09:03:55;;;;;;;8.60;7.63;;;;;;;14.90;80.71;99655.34;5055635;28;20032;-85
2022/04/26 09:06:30;;;;;;;10.43;8.32;;;;;;;14.37;79.86;99663.03;5056352;28;20400;-86
2022/04/26 09:09:09;;;;;;;10.07;8.52;;;;;;;14.06;83.15;99661.41;5055945;28;20058;-86
2022/04/26 09:11:35;;;;;;;9.85;8.75;;;;;;;13.45;84.08;99645.00;5055846;28;20055;-86
2022/04/26 09:14:03;;;;;;;18.05;15.48;;;;;;;13.16;85.59;99671.97;5056051;28;20395;-85
2022/04/26 09:16:29;;;;;;;14.65;12.18;;;;;;;13.08;86.59;99664.53;5074128;28;20103;-86
2022/04/26 09:18:57;;;;;;;10.70;8.60;;;;;;;12.93;86.20;99670.63;5055753;28;20151;-86
2022/04/26 09:21:27;;;;;;;9.38;7.72;;;;;;;12.84;87.09;99673.75;5073813;28;20036;-86
2022/04/26 09:23:57;;;;;;;9.43;7.95;;;;;;;12.93;86.18;99657.53;5055768;28;20501;-86
2022/04/26 09:26:23;;;;;;;17.52;9.38;;;;;;;12.81;86.59;99668.69;5055599;28;20032;-86
2022/04/26 09:28:50;;;;;;;15.95;12.23;;;;;;;13.05;86.15;99677.78;5055170;28;20040;-85
2022/04/26 09:31:17;;;;;;;13.23;10.07;;;;;;;13.56;85.93;99675.75;5055790;28;20039;-85
2022/04/26 09:33:47;;;;;;;11.77;9.13;;;;;;;13.78;84.40;99670.13;5055447;28;20020;-86
2022/04/26 09:36:13;;;;;;;11.43;8.57;;;;;;;13.80;83.37;99664.78;5073739;28;20475;-86
2022/04/26 09:38:41;;;;;;;106.07;53.72;;;;;;;13.78;82.05;99675.34;5055298;28;20021;-86
2022/04/26 09:41:09;;;;;;;180.43;82.68;;;;;;;13.90;81.23;99681.59;5055338;28;20032;-86
2022/04/26 09:43:36;;;;;;;37.42;19.55;;;;;;;14.17;81.72;99668.63;5055255;28;20034;-86
2022/04/26 09:46:01;;;;;;;12.30;9.27;;;;;;;14.64;80.92;99672.75;5055297;28;20060;-86
2022/04/26 09:48:30;;;;;;;116.32;40.90;;;;;;;14.73;79.00;99666.91;5055221;28;20059;-85
2022/04/26 09:50:57;;;;;;;12.07;8.55;;;;;;;14.69;77.21;99642.66;5055301;28;20034;-86
2022/04/26 09:53:24;;;;;;;13.90;8.57;;;;;;;15.02;78.79;99675.53;5055296;28;20025;-85
2022/04/26 09:55:50;;;;;;;9.50;6.90;;;;;;;15.10;79.78;99656.69;5054776;28;20060;-85
2022/04/26 09:58:21;;;;;;;9.32;7.30;;;;;;;15.28;78.38;99681.72;5055061;28;20034;-86
2022/04/26 10:00:49;;;;;;;7.72;6.85;;;;;;;15.22;78.86;99666.38;5054730;28;20025;-86
2022/04/26 10:03:20;;;;;;;8.70;7.30;;;;;;;15.02;77.38;99669.47;5054934;28;20027;-85
2022/04/26 10:05:49;;;;;;;8.38;7.35;;;;;;;15.04;79.25;99662.31;5072503;28;20116;-86
2022/04/26 10:08:17;;;;;;;7.90;7.10;;;;;;;15.05;76.81;99664.84;5054800;28;20020;-86
2022/04/26 10:10:43;;;;;;;14.60;10.02;;;;;;;14.60;75.30;99658.16;5051326;28;20052;-86
2022/04/26 10:16:11;;;;;;;9.40;8.23;;;;;;;14.11;77.97;99674.22;5052896;28;20048;-86
2022/04/26 10:18:43;;;;;;;11.77;9.40;;;;;;;14.17;79.16;99674.72;5051064;28;20025;-85
2022/04/26 10:21:10;;;;;;;11.40;8.93;;;;;;;14.02;81.32;99674.78;5051255;28;20116;-86
2022/04/26 10:23:51;;;;;;;12.23;9.18;;;;;;;13.58;81.82;99686.16;5051120;28;20040;-85
2022/04/26 10:28:54;;;;;;;14.85;8.77;;;;;;;13.09;83.87;99688.91;5052434;28;20083;-85
2022/04/26 10:31:42;;;;;;;10.02;8.68;;;;;;;12.88;85.00;99676.09;5050437;28;20044;-85
2022/04/26 10:34:16;;;;;;;8.68;7.47;;;;;;;13.07;86.79;99677.72;4971569;28;20047;-85
2022/04/26 10:36:43;;;;;;;8.85;7.90;;;;;;;13.37;84.85;99667.31;4971124;28;20052;-85
2022/04/26 10:39:14;;;;;;;8.77;7.45;;;;;;;13.68;84.63;99672.41;4955018;28;20534;-85
2022/04/26 10:41:44;;;;;;;13.48;10.55;;;;;;;13.72;82.60;99675.69;4954859;28;20630;-84
2022/04/26 10:44:31;;;;;;;;;;;;;;;13.57;81.07;99681.81;4955619;28;20062;-85
2022/04/26 10:47:19;;;;;;;76.07;33.42;;;;;;;13.36;80.31;99681.31;4971452;28;20365;-85
2022/04/26 10:49:46;;;;;;;48.53;23.90;;;;;;;13.22;81.58;99669.84;4897841;29;20040;-85
2022/04/26 10:52:24;;;;;;;11.05;7.75;;;;;;;13.28;82.65;99678.28;4898011;29;20044;-87
2022/04/26 10:54:55;;;;;;;8.98;7.13;;;;;;;13.44;84.41;99684.31;4906971;29;20039;-85
2022/04/26 10:57:23;;;;;;;8.00;6.75;;;;;;;13.58;83.36;99657.34;4916806;29;20039;-85
2022/04/26 11:00:01;;;;;;;7.45;6.75;;;;;;;13.80;82.07;99678.69;4932535;29;20048;-85
2022/04/26 11:02:35;;;;;;;9.85;7.47;;;;;;;13.75;82.27;99674.69;4932398;29;20031;-85
2022/04/26 11:05:05;;;;;;;12.45;11.15;;;;;;;13.54;81.78;99677.63;4916430;29;20503;-85
2022/04/26 11:07:31;;;;;;;9.30;7.40;;;;;;;13.36;82.19;99674.31;4932296;29;20131;-85
2022/04/26 11:09:58;;;;;;;7.38;6.60;;;;;;;13.44;82.98;99682.56;4894037;29;20057;-84
2022/04/26 11:12:28;;;;;;;7.20;6.25;;;;;;;13.37;79.67;99678.59;4913558;29;20467;-85
2022/04/26 11:14:56;;;;;;;9.37;6.77;;;;;;;13.42;79.85;99687.03;4897199;29;20044;-85
2022/04/26 11:17:22;;;;;;;8.27;6.38;;;;;;;13.59;78.46;99679.97;4897685;29;20040;-85
2022/04/26 11:19:50;;;;;;;6.28;5.68;;;;;;;13.67;76.77;99680.38;4897278;29;20554;-85
2022/04/26 11:22:17;;;;;;;8.75;6.15;;;;;;;13.98;78.76;99668.91;4913180;29;20466;-84
2022/04/26 11:30:25;;;;;;;7.63;5.75;;;;;;;14.53;77.30;99676.03;5010692;28;20597;-85
2022/04/26 11:32:51;;;;;;;8.60;6.57;;;;;;;14.67;74.49;99677.81;4993719;28;20112;-85
2022/04/26 11:35:21;;;;;;;7.10;5.40;;;;;;;14.30;75.40;99658.25;4993654;28;20433;-85
2022/04/26 11:37:48;;;;;;;7.55;5.72;;;;;;;14.27;74.13;99672.38;5010017;28;20045;-85
2022/04/26 11:40:24;;;;;;;9.95;6.03;;;;;;;13.89;73.97;99693.03;5026278;28;20053;-84
2022/04/26 11:42:50;;;;;;;6.65;5.53;;;;;;;13.55;74.75;99696.78;5015855;28;20029;-85
2022/04/26 11:45:16;;;;;;;7.75;5.80;;;;;;;13.37;75.67;99685.63;5015927;28;20160;-84
2022/04/26 11:47:51;;;;;;;7.97;5.82;;;;;;;13.17;75.25;99690.16;5038454;28;20037;-85
2022/04/26 11:50:22;;;;;;;7.55;6.43;;;;;;;13.21;74.20;99703.91;5054305;28;20110;-85
2022/04/26 11:52:49;;;;;;;7.20;6.25;;;;;;;13.29;74.67;99699.13;5055618;28;20161;-85
2022/04/26 11:55:39;;;;;;;9.38;6.35;;;;;;;13.60;76.68;99698.19;5054302;28;20503;-85
2022/04/26 11:58:14;;;;;;;8.05;6.70;;;;;;;13.94;76.60;99691.81;4958594;28;20498;-85
2022/04/26 12:00:49;;;;;;;6.43;4.80;;;;;;;14.01;71.72;99692.28;4973979;28;20118;-84
2022/04/26 12:03:16;;;;;;;7.00;4.78;;;;;;;13.94;72.50;99686.56;4957960;28;20035;-84
2022/04/26 12:05:42;;;;;;;4.82;4.20;;;;;;;13.98;70.25;99685.44;4957629;28;20031;-85
2022/04/26 12:08:10;;;;;;;4.55;4.13;;;;;;;13.96;69.72;99670.78;4973856;28;20467;-84
2022/04/26 12:10:36;;;;;;;5.40;4.82;;;;;;;13.91;68.83;99678.91;4965979;28;20050;-85
2022/04/26 12:13:05;;;;;;;6.70;6.03;;;;;;;13.78;70.18;99674.47;4993569;28;20030;-85
2022/04/26 12:15:38;;;;;;;6.68;5.72;;;;;;;13.68;70.65;99684.66;4993599;28;20046;-85
2022/04/26 12:18:03;;;;;;;6.10;5.50;;;;;;;13.72;72.19;99673.91;4993107;28;20085;-86
2022/04/26 12:20:29;;;;;;;7.43;5.53;;;;;;;13.87;72.89;99677.41;4993174;28;20030;-86
2022/04/26 12:22:55;;;;;;;6.55;5.68;;;;;;;13.82;72.37;99675.97;4993041;28;20045;-86
2022/04/26 12:25:20;;;;;;;5.90;5.25;;;;;;;13.78;73.01;99682.34;4992994;28;20034;-85
2022/04/26 12:28:01;;;;;;;6.53;5.78;;;;;;;13.63;72.26;99679.69;4992663;28;20074;-85
2022/04/26 12:30:29;;;;;;;7.53;5.13;;;;;;;13.53;70.69;99682.97;4993289;28;20037;-85
2022/04/26 12:32:54;;;;;;;6.93;5.25;;;;;;;13.47;70.04;99677.13;4992530;28;20026;-85
2022/04/26 12:35:21;;;;;;;6.88;5.97;;;;;;;13.48;71.64;99660.53;5051010;28;20044;-85
2022/04/26 12:37:47;;;;;;;8.40;5.55;;;;;;;13.64;70.56;99665.66;5072861;28;20016;-85
2022/04/26 12:40:15;;;;;;;9.32;5.22;;;;;;;13.72;67.31;99662.59;5073180;28;20111;-85
2022/04/26 12:42:42;;;;;;;6.10;5.13;;;;;;;13.70;68.48;99672.34;5072966;28;20029;-85
2022/04/26 12:45:13;;;;;;;5.75;4.80;;;;;;;13.53;69.75;99673.34;5051588;28;20041;-86
2022/04/26 12:50:28;;;;;;;8.98;5.00;;;;;;;13.22;68.69;99682.94;5052178;28;20043;-85
2022/04/26 12:52:59;;;;;;;5.80;5.00;;;;;;;13.13;68.82;99680.81;5034226;28;20037;-85
2022/04/26 12:55:32;;;;;;;6.72;4.95;;;;;;;13.05;68.67;99674.31;5052146;28;20385;-85
2022/04/26 12:58:01;;;;;;;7.07;5.53;;;;;;;13.03;69.59;99663.97;5035039;28;20121;-85
2022/04/26 13:00:27;;;;;;;6.32;4.97;;;;;;;13.12;71.42;99654.75;5051463;28;20462;-85
2022/04/26 13:02:56;;;;;;;5.93;5.32;;;;;;;13.36;71.60;99657.78;5034570;28;20068;-85
2022/04/26 13:05:22;;;;;;;7.57;5.18;;;;;;;13.53;72.64;99656.78;5034731;28;20131;-85
2022/04/26 13:07:48;;;;;;;11.23;8.40;;;;;;;13.64;71.71;99659.59;5034576;28;20120;-85
2022/04/26 13:10:18;;;;;;;6.63;5.68;;;;;;;13.65;70.81;99661.28;5034366;28;20048;-85
2022/04/26 13:12:44;;;;;;;6.18;4.97;;;;;;;13.72;72.00;99645.13;5051000;28;20033;-85
2022/04/26 13:15:10;;;;;;;6.10;5.50;;;;;;;13.81;68.67;99653.38;5053749;28;20124;-84
2022/04/26 13:17:39;;;;;;;5.47;4.82;;;;;;;13.82;68.23;99652.41;5074122;28;20032;-85
2022/04/26 13:20:06;;;;;;;5.10;4.60;;;;;;;13.86;65.61;99646.06;5073478;28;20032;-85
2022/04/26 13:22:35;;;;;;;6.90;4.40;;;;;;;13.89;63.74;99657.19;5072287;28;20082;-86
2022/04/26 13:25:03;;;;;;;6.20;5.18;;;;;;;13.91;64.52;99650.13;5071869;28;20399;-86
2022/04/26 13:27:30;;;;;;;6.85;4.82;;;;;;;13.82;63.95;99634.09;5072403;28;20035;-85
2022/04/26 13:29:55;;;;;;;6.97;5.25;;;;;;;13.84;64.35;99648.78;5071924;28;20423;-85
2022/04/26 13:32:21;;;;;;;13.20;5.70;;;;;;;13.84;64.44;99640.94;5072108;28;20024;-84
2022/04/26 13:34:46;;;;;;;10.38;6.25;;;;;;;13.77;64.28;99650.09;5071793;28;20024;-85
2022/04/26 13:37:12;;;;;;;7.95;4.85;;;;;;;13.69;62.64;99652.31;5073700;28;20043;-84
2022/04/26 13:39:39;;;;;;;7.75;5.25;;;;;;;13.68;63.30;99651.47;5072197;28;20036;-85
2022/04/26 13:42:05;;;;;;;7.97;6.07;;;;;;;13.64;63.82;99654.38;5071542;28;20025;-84
2022/04/26 13:44:32;;;;;;;7.28;5.78;;;;;;;13.61;63.93;99657.16;5071899;28;20039;-84
2022/04/26 13:46:58;;;;;;;7.38;6.38;;;;;;;13.50;65.55;99651.72;5071471;28;20020;-85
2022/04/26 13:49:24;;;;;;;10.25;6.00;;;;;;;13.29;66.83;99651.19;5071677;28;20092;-84
2022/04/26 13:51:50;;;;;;;9.18;5.65;;;;;;;13.11;67.23;99646.06;5071481;28;20357;-84
2022/04/26 13:54:15;;;;;;;5.68;4.88;;;;;;;13.09;68.28;99660.16;5073295;28;20024;-84
2022/04/26 13:56:42;;;;;;;7.05;5.63;;;;;;;13.10;67.87;99652.19;5071725;28;20025;-84
2022/04/26 13:59:07;;;;;;;7.20;5.28;;;;;;;13.10;68.78;99651.38;5072768;28;20085;-84
2022/04/26 14:01:33;;;;;;;9.93;5.75;;;;;;;13.17;67.94;99657.94;5072989;28;20531;-84
2022/04/26 14:03:59;;;;;;;6.30;5.28;;;;;;;13.21;67.92;99643.75;5070998;28;20380;-85
2022/04/26 14:06:24;;;;;;;6.75;5.10;;;;;;;13.35;67.90;99648.22;5072861;28;20021;-84
2022/04/26 14:08:51;;;;;;;6.60;4.70;;;;;;;13.41;66.60;99632.19;5071248;28;20020;-84
2022/04/26 14:11:17;;;;;;;8.07;4.80;;;;;;;13.54;64.25;99648.84;5071224;28;20575;-84
2022/04/26 14:21:59;;;;;;;7.07;5.15;;;;;;;13.59;65.90;99646.78;5010198;28;20030;-84
2022/04/26 14:24:25;;;;;;;5.28;4.75;;;;;;;13.61;65.61;99652.78;4994180;28;20490;-84
2022/04/26 14:26:51;;;;;;;7.10;5.45;;;;;;;13.51;64.58;99637.72;4994095;28;20038;-84
2022/04/26 14:29:16;;;;;;;6.93;5.50;;;;;;;13.49;65.60;99645.66;5010621;28;20548;-83
2022/04/26 14:31:42;;;;;;;6.30;5.70;;;;;;;13.48;63.68;99650.06;5010598;28;20037;-84
2022/04/26 14:34:08;;;;;;;6.10;5.35;;;;;;;13.57;64.02;99642.56;4990016;28;20137;-82
2022/04/26 14:36:34;;;;;;;9.57;5.35;;;;;;;13.69;63.38;99640.09;5001484;28;20805;-87
2022/04/26 14:39:00;;;;;;;6.80;5.10;;;;;;;13.88;63.40;99641.59;4982463;28;20556;-83
2022/04/26 14:41:26;;;;;;;5.32;4.57;;;;;;;14.12;63.50;99632.25;4974587;28;20205;-83
2022/04/26 14:43:52;;;;;;;6.57;4.95;;;;;;;14.19;61.98;99632.69;4990376;28;20033;-73
2022/04/26 14:46:18;;;;;;;6.88;4.70;;;;;;;14.23;61.57;99642.88;5009970;28;20049;-74
2022/04/26 14:48:44;;;;;;;8.75;4.80;;;;;;;14.19;61.87;99641.41;5009852;28;20029;-74
2022/04/26 14:51:11;;;;;;;10.55;8.15;;;;;;;13.98;60.12;99634.84;5003652;28;20639;-74
2022/04/26 14:53:37;;;;;;;8.43;6.43;;;;;;;13.93;60.84;99643.00;4990257;28;20502;-74
2022/04/26 14:56:04;;;;;;;7.78;6.95;;;;;;;13.87;60.98;99626.84;4989901;28;20593;-74
2022/04/26 14:58:30;;;;;;;9.02;6.53;;;;;;;13.83;60.63;99633.19;5008328;28;20048;-74
2022/04/26 15:00:56;;;;;;;7.18;5.60;;;;;;;13.80;60.23;99638.59;5051517;28;20365;-74
2022/04/26 15:03:22;;;;;;;7.72;5.53;;;;;;;13.87;59.63;99647.78;5051833;28;20366;-74
2022/04/26 15:05:47;;;;;;;7.55;5.05;;;;;;;13.92;58.90;99643.09;5051442;28;20043;-74
2022/04/26 15:10:57;;;;;;;7.43;5.93;;;;;;;14.31;57.56;99642.44;5083450;28;20090;-74
2022/04/26 15:18:50;;;;;;;6.70;5.70;;;;;;;14.44;57.03;99643.34;5098330;28;20132;-74
2022/04/26 15:21:18;;;;;;;14.52;9.73;;;;;;;14.36;58.67;99635.09;5098798;28;20515;-74
2022/04/26 15:23:44;;;;;;;8.98;6.60;;;;;;;14.18;61.68;99631.88;5098649;28;20482;-74
2022/04/26 15:26:11;;;;;;;7.50;6.22;;;;;;;14.30;62.10;99645.16;5098382;28;20028;-74
2022/04/26 15:28:37;;;;;;;8.35;6.55;;;;;;;14.15;61.09;99633.81;5098346;28;20028;-74
2022/04/26 15:31:03;;;;;;;6.30;5.55;;;;;;;14.29;61.90;99639.06;5098158;28;20107;-74
2022/04/26 15:33:29;;;;;;;6.20;5.50;;;;;;;14.25;61.79;99637.56;5098413;28;20111;-74
2022/04/26 15:35:57;;;;;;;8.27;6.45;;;;;;;14.22;61.74;99640.38;5098294;28;20020;-73
2022/04/26 15:38:27;;;;;;;8.68;7.13;;;;;;;14.15;61.83;99647.75;5098530;28;20028;-74
2022/04/26 15:40:53;;;;;;;7.18;5.82;;;;;;;14.03;62.04;99656.41;5097925;28;20064;-74